sensor_id;sensor_type;location;lat;lon;timestamp;temperature;humidity
15152;DHT22;7676;50.900;6.234;2023-08-17T00:13:39;17.70;99.90
15152;DHT22;7676;50.900;6.234;2023-08-17T00:28:42;17.70;99.90
15152;DHT22;7676;50.900;6.234;2023-08-17T00:43:45;17.80;99.90
15152;DHT22;7676;50.900;6.234;2023-08-17T00:58:49;17.40;99.90
15152;DHT22;7676;50.900;6.234;2023-08-17T01:14:10;17.60;99.90
15152;DHT22;7676;50.900;6.234;2023-08-17T01:29:18;18.00;99.90
15152;DHT22;7676;50.900;6.234;2023-08-17T01:44:21;17.90;99.90
15152;DHT22;7676;50.900;6.234;2023-08-17T01:59:24;17.70;99.90
15152;DHT22;7676;50.900;6.234;2023-08-17T02:14:26;17.20;99.90
15152;DHT22;7676;50.900;6.234;2023-08-17T02:29:28;17.30;99.90
15152;DHT22;7676;50.900;6.234;2023-08-17T02:44:31;17.40;99.90
15152;DHT22;7676;50.900;6.234;2023-08-17T02:59:33;16.90;99.90
15152;DHT22;7676;50.900;6.234;2023-08-17T03:14:36;17.10;99.90
15152;DHT22;7676;50.900;6.234;2023-08-17T03:29:39;17.20;99.90
15152;DHT22;7676;50.900;6.234;2023-08-17T03:44:42;17.30;99.90
15152;DHT22;7676;50.900;6.234;2023-08-17T03:59:44;17.20;99.90
15152;DHT22;7676;50.900;6.234;2023-08-17T04:14:47;16.80;99.90
15152;DHT22;7676;50.900;6.234;2023-08-17T04:29:50;18.80;99.90
15152;DHT22;7676;50.900;6.234;2023-08-17T04:44:54;16.50;99.90
15152;DHT22;7676;50.900;6.234;2023-08-17T04:59:56;16.30;99.90
15152;DHT22;7676;50.900;6.234;2023-08-17T05:14:59;16.80;99.90
15152;DHT22;7676;50.900;6.234;2023-08-17T05:30:02;16.70;99.90
15152;DHT22;7676;50.900;6.234;2023-08-17T05:45:05;16.10;99.90
15152;DHT22;7676;50.900;6.234;2023-08-17T06:00:09;16.00;99.90
15152;DHT22;7676;50.900;6.234;2023-08-17T06:15:17;15.90;99.90
15152;DHT22;7676;50.900;6.234;2023-08-17T06:30:19;16.10;99.90
15152;DHT22;7676;50.900;6.234;2023-08-17T06:45:22;16.10;99.90
15152;DHT22;7676;50.900;6.234;2023-08-17T07:00:25;16.20;99.90
15152;DHT22;7676;50.900;6.234;2023-08-17T07:15:29;16.60;99.90
15152;DHT22;7676;50.900;6.234;2023-08-17T07:30:32;16.50;99.90
15152;DHT22;7676;50.900;6.234;2023-08-17T07:45:34;16.50;99.90
15152;DHT22;7676;50.900;6.234;2023-08-17T08:00:37;16.70;99.90
15152;DHT22;7676;50.900;6.234;2023-08-17T08:15:39;16.60;99.90
15152;DHT22;7676;50.900;6.234;2023-08-17T08:46:21;16.80;99.90
15152;DHT22;7676;50.900;6.234;2023-08-17T09:01:26;16.90;99.90
15152;DHT22;7676;50.900;6.234;2023-08-17T09:16:29;17.40;99.90
15152;DHT22;7676;50.900;6.234;2023-08-17T09:31:32;17.40;99.90
15152;DHT22;7676;50.900;6.234;2023-08-17T09:46:35;17.40;99.90
15152;DHT22;7676;50.900;6.234;2023-08-17T10:01:38;17.40;99.90
15152;DHT22;7676;50.900;6.234;2023-08-17T10:16:45;17.80;99.90
15152;DHT22;7676;50.900;6.234;2023-08-17T10:31:49;17.70;99.90
15152;DHT22;7676;50.900;6.234;2023-08-17T10:46:51;17.80;99.90
15152;DHT22;7676;50.900;6.234;2023-08-17T11:01:54;17.90;99.90
15152;DHT22;7676;50.900;6.234;2023-08-17T11:16:56;18.10;99.90
15152;DHT22;7676;50.900;6.234;2023-08-17T11:31:59;17.80;99.90
15152;DHT22;7676;50.900;6.234;2023-08-17T11:47:03;17.80;99.90
15152;DHT22;7676;50.900;6.234;2023-08-17T12:02:05;17.70;99.90
15152;DHT22;7676;50.900;6.234;2023-08-17T12:17:13;17.90;99.90
15152;DHT22;7676;50.900;6.234;2023-08-17T12:32:17;17.90;99.90
15152;DHT22;7676;50.900;6.234;2023-08-17T12:47:20;17.90;99.90
15152;DHT22;7676;50.900;6.234;2023-08-17T13:02:23;18.30;99.90
15152;DHT22;7676;50.900;6.234;2023-08-17T13:17:26;18.20;99.90
15152;DHT22;7676;50.900;6.234;2023-08-17T13:32:29;18.10;99.90
15152;DHT22;7676;50.900;6.234;2023-08-17T13:47:32;18.60;99.90
15152;DHT22;7676;50.900;6.234;2023-08-17T14:02:35;18.90;99.90
15152;DHT22;7676;50.900;6.234;2023-08-17T14:17:38;19.20;99.90
15152;DHT22;7676;50.900;6.234;2023-08-17T14:32:41;19.50;99.90
15152;DHT22;7676;50.900;6.234;2023-08-17T14:47:43;19.50;99.90
15152;DHT22;7676;50.900;6.234;2023-08-17T15:02:45;20.20;99.90
15152;DHT22;7676;50.900;6.234;2023-08-17T15:17:48;20.10;99.90
15152;DHT22;7676;50.900;6.234;2023-08-17T15:32:51;20.20;99.90
15152;DHT22;7676;50.900;6.234;2023-08-17T15:47:53;20.50;99.90
15152;DHT22;7676;50.900;6.234;2023-08-17T16:02:56;19.80;99.90
15152;DHT22;7676;50.900;6.234;2023-08-17T16:17:58;20.00;99.90
15152;DHT22;7676;50.900;6.234;2023-08-17T16:33:03;19.90;99.90
15152;DHT22;7676;50.900;6.234;2023-08-17T16:48:06;19.60;99.90
15152;DHT22;7676;50.900;6.234;2023-08-17T17:03:09;19.20;99.90
15152;DHT22;7676;50.900;6.234;2023-08-17T17:33:15;19.00;99.90
15152;DHT22;7676;50.900;6.234;2023-08-17T17:48:17;19.00;99.90
15152;DHT22;7676;50.900;6.234;2023-08-17T18:03:20;18.90;99.90
15152;DHT22;7676;50.900;6.234;2023-08-17T18:18:22;18.70;99.90
15152;DHT22;7676;50.900;6.234;2023-08-17T18:33:25;18.70;99.90
15152;DHT22;7676;50.900;6.234;2023-08-17T18:48:28;18.60;99.90
15152;DHT22;7676;50.900;6.234;2023-08-17T19:03:30;18.50;99.90
15152;DHT22;7676;50.900;6.234;2023-08-17T19:18:33;18.80;99.90
15152;DHT22;7676;50.900;6.234;2023-08-17T19:33:37;18.70;99.90
15152;DHT22;7676;50.900;6.234;2023-08-17T19:48:40;17.60;99.90
15152;DHT22;7676;50.900;6.234;2023-08-17T20:03:44;19.50;99.90
15152;DHT22;7676;50.900;6.234;2023-08-17T20:18:50;19.20;99.90
15152;DHT22;7676;50.900;6.234;2023-08-17T20:33:53;19.10;99.90
15152;DHT22;7676;50.900;6.234;2023-08-17T20:48:56;19.30;99.90
15152;DHT22;7676;50.900;6.234;2023-08-17T21:04:01;19.40;99.90
15152;DHT22;7676;50.900;6.234;2023-08-17T21:19:04;19.30;99.90
15152;DHT22;7676;50.900;6.234;2023-08-17T21:34:07;19.70;99.90
15152;DHT22;7676;50.900;6.234;2023-08-17T21:49:09;18.90;99.90
15152;DHT22;7676;50.900;6.234;2023-08-17T22:04:12;18.20;99.90
15152;DHT22;7676;50.900;6.234;2023-08-17T22:19:14;18.00;99.90
15152;DHT22;7676;50.900;6.234;2023-08-17T22:34:17;18.30;99.90
15152;DHT22;7676;50.900;6.234;2023-08-17T22:49:21;17.90;99.90
15152;DHT22;7676;50.900;6.234;2023-08-17T23:04:23;18.40;99.90
15152;DHT22;7676;50.900;6.234;2023-08-17T23:19:30;18.20;99.90
15152;DHT22;7676;50.900;6.234;2023-08-17T23:49:38;17.50;99.90
